sensor_id;sensor_type;location;lat;lon;timestamp;P1;durP1;ratioP1;P2;durP2;ratioP2
42194;SDS011;27863;49.440;11.102;2022-12-20T00:00:30;17.97;;;16.17;;
42194;SDS011;27863;49.440;11.102;2022-12-20T00:03:31;18.20;;;16.20;;
42194;SDS011;27863;49.440;11.102;2022-12-20T00:06:36;17.23;;;15.40;;
42194;SDS011;27863;49.440;11.102;2022-12-20T00:09:40;18.73;;;16.57;;
42194;SDS011;27863;49.440;11.102;2022-12-20T00:12:41;18.37;;;15.07;;
42194;SDS011;27863;49.440;11.102;2022-12-20T00:15:44;19.57;;;15.87;;
42194;SDS011;27863;49.440;11.102;2022-12-20T00:18:44;22.00;;;15.57;;
42194;SDS011;27863;49.440;11.102;2022-12-20T00:21:45;20.37;;;16.20;;
42194;SDS011;27863;49.440;11.102;2022-12-20T00:24:45;17.17;;;15.20;;
42194;SDS011;27863;49.440;11.102;2022-12-20T00:27:46;18.70;;;16.50;;
42194;SDS011;27863;49.440;11.102;2022-12-20T00:30:51;17.40;;;14.43;;
42194;SDS011;27863;49.440;11.102;2022-12-20T00:33:54;22.47;;;16.67;;
42194;SDS011;27863;49.440;11.102;2022-12-20T00:36:55;23.37;;;17.10;;
42194;SDS011;27863;49.440;11.102;2022-12-20T00:39:56;20.77;;;14.83;;
42194;SDS011;27863;49.440;11.102;2022-12-20T00:42:56;19.47;;;14.83;;
42194;SDS011;27863;49.440;11.102;2022-12-20T00:45:57;18.40;;;15.80;;
42194;SDS011;27863;49.440;11.102;2022-12-20T00:48:58;19.03;;;14.60;;
42194;SDS011;27863;49.440;11.102;2022-12-20T00:51:59;23.20;;;14.10;;
42194;SDS011;27863;49.440;11.102;2022-12-20T00:54:59;20.30;;;16.33;;
42194;SDS011;27863;49.440;11.102;2022-12-20T00:58:00;21.40;;;14.60;;
42194;SDS011;27863;49.440;11.102;2022-12-20T01:01:00;19.83;;;16.27;;
42194;SDS011;27863;49.440;11.102;2022-12-20T01:04:02;21.97;;;15.70;;
42194;SDS011;27863;49.440;11.102;2022-12-20T01:07:05;17.63;;;14.83;;
42194;SDS011;27863;49.440;11.102;2022-12-20T01:10:05;17.73;;;14.43;;
42194;SDS011;27863;49.440;11.102;2022-12-20T01:13:06;16.93;;;14.67;;
42194;SDS011;27863;49.440;11.102;2022-12-20T01:16:08;16.70;;;15.00;;
42194;SDS011;27863;49.440;11.102;2022-12-20T01:19:16;18.23;;;16.17;;
42194;SDS011;27863;49.440;11.102;2022-12-20T01:22:18;21.47;;;16.33;;
42194;SDS011;27863;49.440;11.102;2022-12-20T01:25:19;16.37;;;14.60;;
42194;SDS011;27863;49.440;11.102;2022-12-20T01:28:19;22.87;;;16.60;;
42194;SDS011;27863;49.440;11.102;2022-12-20T01:31:20;22.60;;;16.57;;
42194;SDS011;27863;49.440;11.102;2022-12-20T01:34:21;18.63;;;14.30;;
42194;SDS011;27863;49.440;11.102;2022-12-20T01:37:21;17.37;;;15.57;;
42194;SDS011;27863;49.440;11.102;2022-12-20T01:40:22;17.87;;;15.80;;
42194;SDS011;27863;49.440;11.102;2022-12-20T01:43:23;17.67;;;15.80;;
42194;SDS011;27863;49.440;11.102;2022-12-20T01:46:26;18.17;;;16.23;;
42194;SDS011;27863;49.440;11.102;2022-12-20T01:49:31;18.43;;;15.40;;
42194;SDS011;27863;49.440;11.102;2022-12-20T01:52:44;17.47;;;15.17;;
42194;SDS011;27863;49.440;11.102;2022-12-20T01:55:45;26.73;;;17.70;;
42194;SDS011;27863;49.440;11.102;2022-12-20T01:58:47;17.17;;;15.03;;
42194;SDS011;27863;49.440;11.102;2022-12-20T02:01:48;16.73;;;14.87;;
42194;SDS011;27863;49.440;11.102;2022-12-20T02:04:49;16.83;;;15.03;;
42194;SDS011;27863;49.440;11.102;2022-12-20T02:07:51;19.17;;;17.10;;
42194;SDS011;27863;49.440;11.102;2022-12-20T02:24:26;18.50;;;16.30;;
42194;SDS011;27863;49.440;11.102;2022-12-20T02:31:21;21.90;;;16.03;;
42194;SDS011;27863;49.440;11.102;2022-12-20T02:34:26;22.10;;;15.93;;
42194;SDS011;27863;49.440;11.102;2022-12-20T02:37:32;18.40;;;16.50;;
42194;SDS011;27863;49.440;11.102;2022-12-20T02:40:34;17.57;;;15.53;;
42194;SDS011;27863;49.440;11.102;2022-12-20T02:43:40;20.47;;;15.20;;
42194;SDS011;27863;49.440;11.102;2022-12-20T02:47:01;18.77;;;16.77;;
42194;SDS011;27863;49.440;11.102;2022-12-20T02:50:05;23.37;;;16.47;;
42194;SDS011;27863;49.440;11.102;2022-12-20T02:53:06;18.37;;;16.03;;
42194;SDS011;27863;49.440;11.102;2022-12-20T02:56:21;17.93;;;16.23;;
42194;SDS011;27863;49.440;11.102;2022-12-20T02:59:29;18.63;;;16.77;;
42194;SDS011;27863;49.440;11.102;2022-12-20T03:02:36;21.13;;;15.77;;
42194;SDS011;27863;49.440;11.102;2022-12-20T03:05:57;22.73;;;16.43;;
42194;SDS011;27863;49.440;11.102;2022-12-20T03:08:57;15.97;;;14.27;;
42194;SDS011;27863;49.440;11.102;2022-12-20T03:12:01;25.00;;;16.27;;
42194;SDS011;27863;49.440;11.102;2022-12-20T03:15:04;16.90;;;14.90;;
42194;SDS011;27863;49.440;11.102;2022-12-20T03:18:05;19.07;;;15.20;;
42194;SDS011;27863;49.440;11.102;2022-12-20T03:21:06;19.73;;;16.17;;
42194;SDS011;27863;49.440;11.102;2022-12-20T03:24:07;19.57;;;15.87;;
42194;SDS011;27863;49.440;11.102;2022-12-20T03:27:07;18.83;;;16.73;;
42194;SDS011;27863;49.440;11.102;2022-12-20T03:30:08;19.70;;;16.00;;
42194;SDS011;27863;49.440;11.102;2022-12-20T03:33:11;19.27;;;15.67;;
42194;SDS011;27863;49.440;11.102;2022-12-20T03:36:13;18.03;;;15.80;;
42194;SDS011;27863;49.440;11.102;2022-12-20T03:39:14;19.10;;;15.67;;
42194;SDS011;27863;49.440;11.102;2022-12-20T03:42:15;18.43;;;15.87;;
42194;SDS011;27863;49.440;11.102;2022-12-20T03:45:16;19.43;;;16.53;;
42194;SDS011;27863;49.440;11.102;2022-12-20T03:48:19;21.20;;;15.83;;
42194;SDS011;27863;49.440;11.102;2022-12-20T03:51:21;18.80;;;17.00;;
42194;SDS011;27863;49.440;11.102;2022-12-20T03:54:21;17.90;;;15.97;;
42194;SDS011;27863;49.440;11.102;2022-12-20T03:57:44;17.53;;;15.63;;
42194;SDS011;27863;49.440;11.102;2022-12-20T04:01:01;16.53;;;14.73;;
42194;SDS011;27863;49.440;11.102;2022-12-20T04:04:15;17.97;;;15.33;;
42194;SDS011;27863;49.440;11.102;2022-12-20T04:07:16;19.77;;;16.23;;
42194;SDS011;27863;49.440;11.102;2022-12-20T04:10:19;18.40;;;16.10;;
42194;SDS011;27863;49.440;11.102;2022-12-20T04:13:20;18.23;;;16.37;;
42194;SDS011;27863;49.440;11.102;2022-12-20T04:16:23;18.70;;;15.67;;
42194;SDS011;27863;49.440;11.102;2022-12-20T04:19:27;18.33;;;15.40;;
42194;SDS011;27863;49.440;11.102;2022-12-20T04:22:27;20.37;;;15.87;;
42194;SDS011;27863;49.440;11.102;2022-12-20T04:25:35;17.30;;;15.50;;
42194;SDS011;27863;49.440;11.102;2022-12-20T04:28:36;22.63;;;16.27;;
42194;SDS011;27863;49.440;11.102;2022-12-20T04:31:37;19.70;;;16.03;;
42194;SDS011;27863;49.440;11.102;2022-12-20T04:34:38;18.27;;;16.47;;
42194;SDS011;27863;49.440;11.102;2022-12-20T04:37:40;20.13;;;17.93;;
42194;SDS011;27863;49.440;11.102;2022-12-20T04:40:42;19.00;;;16.30;;
42194;SDS011;27863;49.440;11.102;2022-12-20T04:43:43;22.53;;;17.70;;
42194;SDS011;27863;49.440;11.102;2022-12-20T04:46:46;19.47;;;16.33;;
42194;SDS011;27863;49.440;11.102;2022-12-20T04:49:48;24.37;;;16.23;;
42194;SDS011;27863;49.440;11.102;2022-12-20T04:52:49;19.53;;;16.93;;
42194;SDS011;27863;49.440;11.102;2022-12-20T04:56:08;20.47;;;17.40;;
42194;SDS011;27863;49.440;11.102;2022-12-20T04:59:09;18.40;;;14.97;;
42194;SDS011;27863;49.440;11.102;2022-12-20T05:02:15;18.00;;;16.20;;
42194;SDS011;27863;49.440;11.102;2022-12-20T05:05:23;19.33;;;14.57;;
42194;SDS011;27863;49.440;11.102;2022-12-20T05:08:27;19.50;;;15.33;;
42194;SDS011;27863;49.440;11.102;2022-12-20T05:11:28;22.23;;;16.33;;
42194;SDS011;27863;49.440;11.102;2022-12-20T05:14:29;17.43;;;15.63;;
42194;SDS011;27863;49.440;11.102;2022-12-20T05:17:30;19.63;;;16.17;;
42194;SDS011;27863;49.440;11.102;2022-12-20T05:20:31;21.23;;;16.03;;
42194;SDS011;27863;49.440;11.102;2022-12-20T05:23:33;17.27;;;15.43;;
42194;SDS011;27863;49.440;11.102;2022-12-20T05:26:57;17.03;;;15.37;;
42194;SDS011;27863;49.440;11.102;2022-12-20T05:29:58;18.00;;;16.07;;
42194;SDS011;27863;49.440;11.102;2022-12-20T05:33:01;18.60;;;16.00;;
42194;SDS011;27863;49.440;11.102;2022-12-20T05:36:04;22.23;;;16.80;;
42194;SDS011;27863;49.440;11.102;2022-12-20T05:39:06;16.53;;;14.73;;
42194;SDS011;27863;49.440;11.102;2022-12-20T05:42:10;20.33;;;17.30;;
42194;SDS011;27863;49.440;11.102;2022-12-20T05:45:11;18.20;;;16.30;;
42194;SDS011;27863;49.440;11.102;2022-12-20T05:48:21;18.27;;;16.37;;
42194;SDS011;27863;49.440;11.102;2022-12-20T05:51:22;17.43;;;14.40;;
42194;SDS011;27863;49.440;11.102;2022-12-20T05:54:30;17.27;;;15.30;;
42194;SDS011;27863;49.440;11.102;2022-12-20T05:57:50;17.73;;;15.40;;
42194;SDS011;27863;49.440;11.102;2022-12-20T06:01:01;17.37;;;15.57;;
42194;SDS011;27863;49.440;11.102;2022-12-20T06:04:07;20.97;;;16.20;;
42194;SDS011;27863;49.440;11.102;2022-12-20T06:07:07;20.33;;;16.20;;
42194;SDS011;27863;49.440;11.102;2022-12-20T06:10:09;23.37;;;15.93;;
42194;SDS011;27863;49.440;11.102;2022-12-20T06:13:29;16.83;;;14.87;;
42194;SDS011;27863;49.440;11.102;2022-12-20T06:16:31;18.13;;;15.43;;
42194;SDS011;27863;49.440;11.102;2022-12-20T06:19:32;21.10;;;16.60;;
42194;SDS011;27863;49.440;11.102;2022-12-20T06:22:33;17.17;;;15.57;;
42194;SDS011;27863;49.440;11.102;2022-12-20T06:25:34;18.43;;;15.30;;
42194;SDS011;27863;49.440;11.102;2022-12-20T06:28:35;19.90;;;17.13;;
42194;SDS011;27863;49.440;11.102;2022-12-20T06:31:42;18.13;;;15.70;;
42194;SDS011;27863;49.440;11.102;2022-12-20T06:34:43;21.47;;;16.53;;
42194;SDS011;27863;49.440;11.102;2022-12-20T06:37:44;20.23;;;16.63;;
42194;SDS011;27863;49.440;11.102;2022-12-20T06:40:48;19.20;;;16.30;;
42194;SDS011;27863;49.440;11.102;2022-12-20T06:43:48;21.60;;;17.20;;
42194;SDS011;27863;49.440;11.102;2022-12-20T06:46:49;22.50;;;16.80;;
42194;SDS011;27863;49.440;11.102;2022-12-20T06:49:50;21.80;;;15.63;;
42194;SDS011;27863;49.440;11.102;2022-12-20T06:52:56;17.30;;;15.53;;
42194;SDS011;27863;49.440;11.102;2022-12-20T06:55:58;22.87;;;15.77;;
42194;SDS011;27863;49.440;11.102;2022-12-20T06:58:59;18.93;;;15.93;;
42194;SDS011;27863;49.440;11.102;2022-12-20T07:01:59;22.87;;;16.67;;
42194;SDS011;27863;49.440;11.102;2022-12-20T07:05:01;19.30;;;15.97;;
42194;SDS011;27863;49.440;11.102;2022-12-20T07:08:02;19.40;;;15.77;;
42194;SDS011;27863;49.440;11.102;2022-12-20T07:11:04;17.23;;;15.50;;
42194;SDS011;27863;49.440;11.102;2022-12-20T07:14:05;20.33;;;15.93;;
42194;SDS011;27863;49.440;11.102;2022-12-20T07:17:07;20.13;;;16.87;;
42194;SDS011;27863;49.440;11.102;2022-12-20T07:20:08;17.33;;;15.57;;
42194;SDS011;27863;49.440;11.102;2022-12-20T07:23:09;20.90;;;16.67;;
42194;SDS011;27863;49.440;11.102;2022-12-20T07:26:10;23.00;;;14.93;;
42194;SDS011;27863;49.440;11.102;2022-12-20T07:29:12;17.57;;;14.23;;
42194;SDS011;27863;49.440;11.102;2022-12-20T07:32:13;20.37;;;15.63;;
42194;SDS011;27863;49.440;11.102;2022-12-20T07:35:14;17.40;;;15.57;;
42194;SDS011;27863;49.440;11.102;2022-12-20T07:38:15;18.07;;;16.17;;
42194;SDS011;27863;49.440;11.102;2022-12-20T07:41:16;17.83;;;15.07;;
42194;SDS011;27863;49.440;11.102;2022-12-20T07:44:18;16.70;;;14.67;;
42194;SDS011;27863;49.440;11.102;2022-12-20T07:47:19;23.27;;;15.70;;
42194;SDS011;27863;49.440;11.102;2022-12-20T07:50:19;16.27;;;14.77;;
42194;SDS011;27863;49.440;11.102;2022-12-20T07:53:21;16.87;;;15.07;;
42194;SDS011;27863;49.440;11.102;2022-12-20T07:56:23;19.60;;;14.97;;
42194;SDS011;27863;49.440;11.102;2022-12-20T07:59:28;17.73;;;15.93;;
42194;SDS011;27863;49.440;11.102;2022-12-20T08:02:36;17.17;;;15.37;;
42194;SDS011;27863;49.440;11.102;2022-12-20T08:06:01;16.00;;;14.30;;
42194;SDS011;27863;49.440;11.102;2022-12-20T08:09:04;16.07;;;14.47;;
42194;SDS011;27863;49.440;11.102;2022-12-20T08:12:06;17.63;;;13.63;;
42194;SDS011;27863;49.440;11.102;2022-12-20T08:15:08;16.17;;;13.10;;
42194;SDS011;27863;49.440;11.102;2022-12-20T08:18:10;17.07;;;15.10;;
42194;SDS011;27863;49.440;11.102;2022-12-20T08:21:11;14.00;;;12.50;;
42194;SDS011;27863;49.440;11.102;2022-12-20T08:24:13;14.60;;;13.10;;
42194;SDS011;27863;49.440;11.102;2022-12-20T08:27:14;20.80;;;14.10;;
42194;SDS011;27863;49.440;11.102;2022-12-20T08:30:14;16.43;;;13.20;;
42194;SDS011;27863;49.440;11.102;2022-12-20T08:33:15;27.07;;;13.23;;
42194;SDS011;27863;49.440;11.102;2022-12-20T08:36:15;15.57;;;13.10;;
42194;SDS011;27863;49.440;11.102;2022-12-20T08:39:17;13.90;;;12.53;;
42194;SDS011;27863;49.440;11.102;2022-12-20T08:42:27;15.13;;;13.70;;
42194;SDS011;27863;49.440;11.102;2022-12-20T08:45:27;14.40;;;12.90;;
42194;SDS011;27863;49.440;11.102;2022-12-20T08:48:28;16.43;;;13.80;;
42194;SDS011;27863;49.440;11.102;2022-12-20T08:51:31;15.63;;;14.03;;
42194;SDS011;27863;49.440;11.102;2022-12-20T08:54:32;13.70;;;12.50;;
42194;SDS011;27863;49.440;11.102;2022-12-20T08:57:32;14.90;;;13.50;;
42194;SDS011;27863;49.440;11.102;2022-12-20T09:00:33;13.87;;;12.57;;
42194;SDS011;27863;49.440;11.102;2022-12-20T09:03:34;14.77;;;12.47;;
42194;SDS011;27863;49.440;11.102;2022-12-20T09:06:35;15.90;;;12.97;;
42194;SDS011;27863;49.440;11.102;2022-12-20T09:09:36;15.87;;;13.40;;
42194;SDS011;27863;49.440;11.102;2022-12-20T09:12:37;14.83;;;13.33;;
42194;SDS011;27863;49.440;11.102;2022-12-20T09:15:38;14.73;;;13.33;;
42194;SDS011;27863;49.440;11.102;2022-12-20T09:18:39;14.73;;;13.23;;
42194;SDS011;27863;49.440;11.102;2022-12-20T09:21:40;15.43;;;13.93;;
42194;SDS011;27863;49.440;11.102;2022-12-20T09:24:40;13.53;;;12.10;;
42194;SDS011;27863;49.440;11.102;2022-12-20T09:27:43;13.70;;;12.30;;
42194;SDS011;27863;49.440;11.102;2022-12-20T09:30:44;15.40;;;13.80;;
42194;SDS011;27863;49.440;11.102;2022-12-20T09:33:45;18.13;;;15.77;;
42194;SDS011;27863;49.440;11.102;2022-12-20T09:36:46;16.20;;;13.60;;
42194;SDS011;27863;49.440;11.102;2022-12-20T09:39:47;20.20;;;13.03;;
42194;SDS011;27863;49.440;11.102;2022-12-20T09:42:50;14.90;;;13.30;;
42194;SDS011;27863;49.440;11.102;2022-12-20T09:45:59;16.50;;;13.07;;
42194;SDS011;27863;49.440;11.102;2022-12-20T09:49:01;14.77;;;13.33;;
42194;SDS011;27863;49.440;11.102;2022-12-20T10:02:24;13.50;;;12.10;;
42194;SDS011;27863;49.440;11.102;2022-12-20T10:05:33;14.27;;;12.80;;
42194;SDS011;27863;49.440;11.102;2022-12-20T10:12:07;13.63;;;12.33;;
42194;SDS011;27863;49.440;11.102;2022-12-20T10:15:27;14.53;;;12.93;;
42194;SDS011;27863;49.440;11.102;2022-12-20T10:21:51;15.47;;;13.03;;
42194;SDS011;27863;49.440;11.102;2022-12-20T10:25:19;16.10;;;13.87;;
42194;SDS011;27863;49.440;11.102;2022-12-20T10:28:27;14.23;;;12.87;;
42194;SDS011;27863;49.440;11.102;2022-12-20T10:31:34;13.50;;;12.10;;
42194;SDS011;27863;49.440;11.102;2022-12-20T10:34:35;13.17;;;11.67;;
42194;SDS011;27863;49.440;11.102;2022-12-20T10:37:35;14.00;;;12.27;;
42194;SDS011;27863;49.440;11.102;2022-12-20T10:40:38;12.40;;;11.10;;
42194;SDS011;27863;49.440;11.102;2022-12-20T10:44:03;13.83;;;12.43;;
42194;SDS011;27863;49.440;11.102;2022-12-20T10:47:02;12.17;;;10.90;;
42194;SDS011;27863;49.440;11.102;2022-12-20T10:53:21;14.07;;;12.70;;
42194;SDS011;27863;49.440;11.102;2022-12-20T10:56:24;13.07;;;11.67;;
42194;SDS011;27863;49.440;11.102;2022-12-20T10:59:36;15.30;;;11.90;;
42194;SDS011;27863;49.440;11.102;2022-12-20T11:02:38;11.83;;;10.70;;
42194;SDS011;27863;49.440;11.102;2022-12-20T11:05:39;13.07;;;11.77;;
42194;SDS011;27863;49.440;11.102;2022-12-20T11:08:50;12.90;;;11.57;;
42194;SDS011;27863;49.440;11.102;2022-12-20T11:15:08;13.77;;;11.60;;
42194;SDS011;27863;49.440;11.102;2022-12-20T11:18:14;12.40;;;11.07;;
42194;SDS011;27863;49.440;11.102;2022-12-20T11:24:58;11.83;;;10.73;;
42194;SDS011;27863;49.440;11.102;2022-12-20T11:35:25;11.67;;;10.50;;
42194;SDS011;27863;49.440;11.102;2022-12-20T11:51:44;12.77;;;10.97;;
42194;SDS011;27863;49.440;11.102;2022-12-20T11:54:46;11.27;;;9.93;;
42194;SDS011;27863;49.440;11.102;2022-12-20T11:58:04;11.20;;;10.10;;
42194;SDS011;27863;49.440;11.102;2022-12-20T12:01:17;11.63;;;10.50;;
42194;SDS011;27863;49.440;11.102;2022-12-20T12:04:21;11.33;;;10.23;;
42194;SDS011;27863;49.440;11.102;2022-12-20T12:07:32;10.77;;;9.83;;
42194;SDS011;27863;49.440;11.102;2022-12-20T12:10:35;13.10;;;10.60;;
42194;SDS011;27863;49.440;11.102;2022-12-20T12:13:39;13.23;;;10.57;;
42194;SDS011;27863;49.440;11.102;2022-12-20T12:16:41;14.10;;;11.73;;
42194;SDS011;27863;49.440;11.102;2022-12-20T12:19:48;13.63;;;10.47;;
42194;SDS011;27863;49.440;11.102;2022-12-20T12:22:52;12.43;;;11.30;;
42194;SDS011;27863;49.440;11.102;2022-12-20T12:25:57;12.90;;;11.50;;
42194;SDS011;27863;49.440;11.102;2022-12-20T12:28:59;10.57;;;9.40;;
42194;SDS011;27863;49.440;11.102;2022-12-20T12:32:10;11.77;;;10.70;;
42194;SDS011;27863;49.440;11.102;2022-12-20T12:42:33;12.53;;;11.13;;
42194;SDS011;27863;49.440;11.102;2022-12-20T12:45:48;12.50;;;11.20;;
42194;SDS011;27863;49.440;11.102;2022-12-20T12:48:58;11.83;;;10.63;;
42194;SDS011;27863;49.440;11.102;2022-12-20T12:52:01;11.80;;;10.60;;
42194;SDS011;27863;49.440;11.102;2022-12-20T12:55:32;11.40;;;10.33;;
42194;SDS011;27863;49.440;11.102;2022-12-20T12:58:38;11.93;;;10.47;;
42194;SDS011;27863;49.440;11.102;2022-12-20T13:01:53;11.60;;;10.47;;
42194;SDS011;27863;49.440;11.102;2022-12-20T13:08:16;11.97;;;10.87;;
42194;SDS011;27863;49.440;11.102;2022-12-20T13:11:27;14.47;;;11.10;;
42194;SDS011;27863;49.440;11.102;2022-12-20T13:20:32;11.70;;;10.50;;
42194;SDS011;27863;49.440;11.102;2022-12-20T13:23:34;11.93;;;10.73;;
42194;SDS011;27863;49.440;11.102;2022-12-20T13:26:41;11.53;;;10.33;;
42194;SDS011;27863;49.440;11.102;2022-12-20T13:33:19;12.90;;;10.73;;
42194;SDS011;27863;49.440;11.102;2022-12-20T13:36:35;11.97;;;10.77;;
42194;SDS011;27863;49.440;11.102;2022-12-20T13:39:36;13.03;;;11.40;;
42194;SDS011;27863;49.440;11.102;2022-12-20T13:42:39;14.27;;;11.93;;
42194;SDS011;27863;49.440;11.102;2022-12-20T13:45:42;13.03;;;11.63;;
42194;SDS011;27863;49.440;11.102;2022-12-20T13:55:30;15.57;;;11.87;;
42194;SDS011;27863;49.440;11.102;2022-12-20T13:58:44;12.73;;;10.23;;
42194;SDS011;27863;49.440;11.102;2022-12-20T14:01:56;12.10;;;10.30;;
42194;SDS011;27863;49.440;11.102;2022-12-20T14:05:03;13.43;;;10.43;;
42194;SDS011;27863;49.440;11.102;2022-12-20T14:08:14;10.77;;;9.77;;
42194;SDS011;27863;49.440;11.102;2022-12-20T14:11:20;10.70;;;9.67;;
42194;SDS011;27863;49.440;11.102;2022-12-20T14:14:22;11.17;;;10.07;;
42194;SDS011;27863;49.440;11.102;2022-12-20T14:17:27;11.80;;;10.37;;
42194;SDS011;27863;49.440;11.102;2022-12-20T14:20:31;12.67;;;11.47;;
42194;SDS011;27863;49.440;11.102;2022-12-20T14:26:40;11.77;;;10.57;;
42194;SDS011;27863;49.440;11.102;2022-12-20T14:29:46;12.63;;;11.43;;
42194;SDS011;27863;49.440;11.102;2022-12-20T14:32:48;12.57;;;11.27;;
42194;SDS011;27863;49.440;11.102;2022-12-20T14:35:49;12.17;;;10.87;;
42194;SDS011;27863;49.440;11.102;2022-12-20T14:38:51;13.53;;;11.63;;
42194;SDS011;27863;49.440;11.102;2022-12-20T14:41:59;12.87;;;11.30;;
42194;SDS011;27863;49.440;11.102;2022-12-20T14:48:14;13.80;;;12.40;;
42194;SDS011;27863;49.440;11.102;2022-12-20T14:51:19;11.87;;;10.73;;
42194;SDS011;27863;49.440;11.102;2022-12-20T14:54:21;14.23;;;12.67;;
42194;SDS011;27863;49.440;11.102;2022-12-20T14:57:28;15.80;;;12.67;;
42194;SDS011;27863;49.440;11.102;2022-12-20T15:00:33;13.30;;;11.90;;
42194;SDS011;27863;49.440;11.102;2022-12-20T15:03:33;12.50;;;11.20;;
42194;SDS011;27863;49.440;11.102;2022-12-20T15:06:43;13.10;;;11.73;;
42194;SDS011;27863;49.440;11.102;2022-12-20T15:09:47;17.50;;;12.97;;
42194;SDS011;27863;49.440;11.102;2022-12-20T15:12:47;12.53;;;11.27;;
42194;SDS011;27863;49.440;11.102;2022-12-20T15:15:49;13.80;;;12.40;;
42194;SDS011;27863;49.440;11.102;2022-12-20T15:18:51;13.43;;;12.10;;
42194;SDS011;27863;49.440;11.102;2022-12-20T15:21:54;14.43;;;12.90;;
42194;SDS011;27863;49.440;11.102;2022-12-20T15:28:16;13.47;;;12.07;;
42194;SDS011;27863;49.440;11.102;2022-12-20T15:31:19;12.97;;;11.57;;
42194;SDS011;27863;49.440;11.102;2022-12-20T15:34:29;14.00;;;11.37;;
42194;SDS011;27863;49.440;11.102;2022-12-20T15:37:32;13.03;;;10.97;;
42194;SDS011;27863;49.440;11.102;2022-12-20T15:40:34;12.70;;;11.50;;
42194;SDS011;27863;49.440;11.102;2022-12-20T15:43:36;12.00;;;10.70;;
42194;SDS011;27863;49.440;11.102;2022-12-20T15:46:37;12.70;;;11.33;;
42194;SDS011;27863;49.440;11.102;2022-12-20T15:49:40;12.37;;;10.63;;
42194;SDS011;27863;49.440;11.102;2022-12-20T15:52:41;15.30;;;12.73;;
42194;SDS011;27863;49.440;11.102;2022-12-20T15:55:43;15.73;;;11.80;;
42194;SDS011;27863;49.440;11.102;2022-12-20T15:58:44;13.73;;;12.37;;
42194;SDS011;27863;49.440;11.102;2022-12-20T16:01:46;13.23;;;11.93;;
42194;SDS011;27863;49.440;11.102;2022-12-20T16:04:47;12.60;;;11.37;;
42194;SDS011;27863;49.440;11.102;2022-12-20T16:07:47;13.60;;;11.90;;
42194;SDS011;27863;49.440;11.102;2022-12-20T16:10:48;14.43;;;12.93;;
42194;SDS011;27863;49.440;11.102;2022-12-20T16:13:50;15.30;;;12.20;;
42194;SDS011;27863;49.440;11.102;2022-12-20T16:16:52;13.27;;;11.87;;
42194;SDS011;27863;49.440;11.102;2022-12-20T16:19:53;12.57;;;11.27;;
42194;SDS011;27863;49.440;11.102;2022-12-20T16:22:54;12.67;;;11.40;;
42194;SDS011;27863;49.440;11.102;2022-12-20T16:25:56;14.27;;;12.90;;
42194;SDS011;27863;49.440;11.102;2022-12-20T16:28:56;13.07;;;11.77;;
42194;SDS011;27863;49.440;11.102;2022-12-20T16:31:57;14.10;;;12.63;;
42194;SDS011;27863;49.440;11.102;2022-12-20T16:34:59;14.00;;;12.37;;
42194;SDS011;27863;49.440;11.102;2022-12-20T16:38:00;14.93;;;12.33;;
42194;SDS011;27863;49.440;11.102;2022-12-20T16:41:05;15.17;;;13.13;;
42194;SDS011;27863;49.440;11.102;2022-12-20T16:44:15;12.67;;;11.37;;
42194;SDS011;27863;49.440;11.102;2022-12-20T16:47:16;13.53;;;12.13;;
42194;SDS011;27863;49.440;11.102;2022-12-20T16:50:16;15.80;;;14.17;;
42194;SDS011;27863;49.440;11.102;2022-12-20T16:53:18;15.20;;;11.70;;
42194;SDS011;27863;49.440;11.102;2022-12-20T16:56:19;16.97;;;13.03;;
42194;SDS011;27863;49.440;11.102;2022-12-20T16:59:22;14.23;;;12.70;;
42194;SDS011;27863;49.440;11.102;2022-12-20T17:02:27;14.53;;;13.00;;
42194;SDS011;27863;49.440;11.102;2022-12-20T17:05:30;16.13;;;13.60;;
42194;SDS011;27863;49.440;11.102;2022-12-20T17:08:32;15.23;;;12.07;;
42194;SDS011;27863;49.440;11.102;2022-12-20T17:11:33;14.87;;;13.37;;
42194;SDS011;27863;49.440;11.102;2022-12-20T17:14:34;13.77;;;11.77;;
42194;SDS011;27863;49.440;11.102;2022-12-20T17:17:35;14.50;;;11.67;;
42194;SDS011;27863;49.440;11.102;2022-12-20T17:20:36;15.23;;;13.83;;
42194;SDS011;27863;49.440;11.102;2022-12-20T17:23:38;13.80;;;12.30;;
42194;SDS011;27863;49.440;11.102;2022-12-20T17:26:38;14.37;;;12.97;;
42194;SDS011;27863;49.440;11.102;2022-12-20T17:29:40;14.67;;;13.23;;
42194;SDS011;27863;49.440;11.102;2022-12-20T17:32:42;15.00;;;13.47;;
42194;SDS011;27863;49.440;11.102;2022-12-20T17:35:44;13.73;;;12.33;;
42194;SDS011;27863;49.440;11.102;2022-12-20T17:38:44;14.13;;;12.43;;
42194;SDS011;27863;49.440;11.102;2022-12-20T17:41:48;14.50;;;12.67;;
42194;SDS011;27863;49.440;11.102;2022-12-20T17:44:49;17.53;;;12.80;;
42194;SDS011;27863;49.440;11.102;2022-12-20T17:47:51;14.77;;;12.90;;
42194;SDS011;27863;49.440;11.102;2022-12-20T17:50:52;14.70;;;13.30;;
42194;SDS011;27863;49.440;11.102;2022-12-20T17:53:54;15.37;;;13.73;;
42194;SDS011;27863;49.440;11.102;2022-12-20T17:56:56;15.80;;;13.93;;
42194;SDS011;27863;49.440;11.102;2022-12-20T17:59:57;15.83;;;12.97;;
42194;SDS011;27863;49.440;11.102;2022-12-20T18:02:57;16.13;;;13.30;;
42194;SDS011;27863;49.440;11.102;2022-12-20T18:06:03;15.33;;;13.73;;
42194;SDS011;27863;49.440;11.102;2022-12-20T18:09:09;14.97;;;13.43;;
42194;SDS011;27863;49.440;11.102;2022-12-20T18:12:12;18.53;;;14.83;;
42194;SDS011;27863;49.440;11.102;2022-12-20T18:15:12;16.80;;;13.53;;
42194;SDS011;27863;49.440;11.102;2022-12-20T18:18:13;15.60;;;12.93;;
42194;SDS011;27863;49.440;11.102;2022-12-20T18:21:16;16.90;;;13.27;;
42194;SDS011;27863;49.440;11.102;2022-12-20T18:24:17;17.20;;;13.23;;
42194;SDS011;27863;49.440;11.102;2022-12-20T18:27:19;14.57;;;13.10;;
42194;SDS011;27863;49.440;11.102;2022-12-20T18:30:20;15.80;;;14.23;;
42194;SDS011;27863;49.440;11.102;2022-12-20T18:33:20;15.93;;;13.27;;
42194;SDS011;27863;49.440;11.102;2022-12-20T18:36:23;18.10;;;14.10;;
42194;SDS011;27863;49.440;11.102;2022-12-20T18:39:25;14.53;;;13.00;;
42194;SDS011;27863;49.440;11.102;2022-12-20T18:42:27;15.50;;;13.97;;
42194;SDS011;27863;49.440;11.102;2022-12-20T18:45:27;15.63;;;13.77;;
42194;SDS011;27863;49.440;11.102;2022-12-20T18:48:28;14.53;;;13.20;;
42194;SDS011;27863;49.440;11.102;2022-12-20T18:51:30;14.23;;;12.80;;
42194;SDS011;27863;49.440;11.102;2022-12-20T18:54:32;17.90;;;14.20;;
42194;SDS011;27863;49.440;11.102;2022-12-20T18:57:33;14.90;;;12.40;;
42194;SDS011;27863;49.440;11.102;2022-12-20T19:00:34;15.30;;;13.77;;
42194;SDS011;27863;49.440;11.102;2022-12-20T19:03:36;20.07;;;13.87;;
42194;SDS011;27863;49.440;11.102;2022-12-20T19:06:38;13.97;;;12.63;;
42194;SDS011;27863;49.440;11.102;2022-12-20T19:09:40;18.70;;;12.97;;
42194;SDS011;27863;49.440;11.102;2022-12-20T19:12:40;15.33;;;13.73;;
42194;SDS011;27863;49.440;11.102;2022-12-20T19:15:41;14.20;;;12.87;;
42194;SDS011;27863;49.440;11.102;2022-12-20T19:18:42;16.17;;;14.20;;